Time;durP1;ratioP1;P1;durP2;ratioP2;P2;SDS_P1;SDS_P2;PMS_P1;PMS_P2;Temp;Humidity;BMP_temperature;BMP_pressure;BME280_temperature;BME280_humidity;BME280_pressure;Samples;Min_cycle;Max_cycle;Signal;HPM_P1;HPM_P2
2021/05/21 00:00:15;;;;;;;3.85;0.68;;;14.40;69.10;;;;;;5072459;28;20081;-81
2021/05/21 00:02:41;;;;;;;2.72;0.60;;;14.40;69.10;;;;;;5055851;28;20115;-78
2021/05/21 00:05:07;;;;;;;5.47;0.70;;;14.40;69.30;;;;;;5072469;28;20493;-78
2021/05/21 00:07:33;;;;;;;2.88;0.50;;;14.40;69.20;;;;;;5072015;28;20052;-76
2021/05/21 00:09:58;;;;;;;4.80;0.32;;;14.40;69.10;;;;;;5072348;28;20041;-79
2021/05/21 00:12:24;;;;;;;3.40;0.40;;;14.40;69.40;;;;;;5072304;28;20491;-78
2021/05/21 00:14:53;;;;;;;4.57;0.50;;;14.40;69.30;;;;;;5055392;28;20123;-75
2021/05/21 00:17:18;;;;;;;2.88;0.60;;;14.30;69.30;;;;;;5055988;28;20056;-78
2021/05/21 00:19:44;;;;;;;2.55;0.50;;;14.30;69.60;;;;;;5055615;28;20086;-79
2021/05/21 00:22:09;;;;;;;4.63;0.50;;;14.30;69.60;;;;;;5073325;28;20040;-77
2021/05/21 00:24:35;;;;;;;2.10;0.60;;;14.30;69.70;;;;;;5038849;28;20024;-78
2021/05/21 00:27:01;;;;;;;6.65;0.50;;;14.30;69.60;;;;;;5072189;28;20036;-79
2021/05/21 00:29:26;;;;;;;3.53;0.47;;;14.30;69.80;;;;;;5071830;28;20044;-76
2021/05/21 00:31:52;;;;;;;3.03;0.50;;;14.30;69.80;;;;;;5071776;28;20020;-77
2021/05/21 00:34:17;;;;;;;2.95;0.50;;;14.30;69.70;;;;;;5055181;28;20024;-77
2021/05/21 00:36:43;;;;;;;2.75;0.50;;;14.30;70.50;;;;;;5071778;28;20139;-76
2021/05/21 00:39:09;;;;;;;2.72;0.50;;;14.30;69.80;;;;;;5071902;28;20115;-77
2021/05/21 00:41:34;;;;;;;3.97;0.65;;;14.30;69.90;;;;;;5073077;28;20111;-79
2021/05/21 00:44:00;;;;;;;3.35;0.32;;;14.30;69.80;;;;;;5055027;28;20036;-76
2021/05/21 00:46:26;;;;;;;2.50;0.50;;;14.30;69.90;;;;;;5071652;28;20032;-78
2021/05/21 00:48:52;;;;;;;1.67;0.40;;;14.30;70.00;;;;;;5071972;28;20040;-77
2021/05/21 00:51:17;;;;;;;3.15;0.60;;;14.30;70.00;;;;;;5055228;28;20039;-77
2021/05/21 00:53:45;;;;;;;2.20;0.43;;;14.30;70.10;;;;;;5054867;28;20111;-78
2021/05/21 00:56:10;;;;;;;3.42;0.50;;;14.30;70.30;;;;;;5051350;28;20428;-77
2021/05/21 00:58:37;;;;;;;1.35;0.50;;;14.30;70.10;;;;;;5072851;28;20029;-77
2021/05/21 01:01:04;;;;;;;1.67;0.30;;;14.30;70.30;;;;;;5071519;28;20078;-76
2021/05/21 01:03:29;;;;;;;2.60;0.50;;;14.30;70.30;;;;;;5071716;28;20039;-79
2021/05/21 01:05:55;;;;;;;5.93;0.60;;;14.20;70.40;;;;;;5071468;28;20048;-79
2021/05/21 01:08:21;;;;;;;2.63;0.40;;;14.30;70.50;;;;;;5056474;28;20036;-78
2021/05/21 01:10:46;;;;;;;1.90;0.47;;;14.30;70.70;;;;;;5075632;28;20032;-79
2021/05/21 01:13:13;;;;;;;3.85;0.50;;;14.30;70.50;;;;;;5058851;28;20119;-77
2021/05/21 01:15:40;;;;;;;2.20;0.47;;;14.30;70.70;;;;;;5075682;28;20392;-76
2021/05/21 01:18:07;;;;;;;3.95;0.40;;;14.30;70.50;;;;;;5077173;28;20024;-80
2021/05/21 01:20:34;;;;;;;5.00;0.50;;;14.30;70.40;;;;;;5058713;28;20469;-78
2021/05/21 01:23:00;;;;;;;2.30;0.43;;;14.30;70.50;;;;;;5075766;28;20387;-79
2021/05/21 01:25:26;;;;;;;1.63;0.50;;;14.30;70.60;;;;;;5075256;28;20392;-77
2021/05/21 01:27:57;;;;;;;2.83;0.70;;;14.40;70.60;;;;;;5075456;28;20469;-74
2021/05/21 01:30:24;;;;;;;3.72;0.52;;;14.30;70.60;;;;;;5075375;28;20114;-75
2021/05/21 01:32:49;;;;;;;3.10;0.75;;;14.30;70.60;;;;;;5058608;28;20028;-74
2021/05/21 01:35:17;;;;;;;1.17;0.43;;;14.30;70.60;;;;;;5076453;28;20464;-75
2021/05/21 01:37:45;;;;;;;1.58;0.50;;;14.30;70.70;;;;;;5074995;28;20082;-75
2021/05/21 01:40:12;;;;;;;1.50;0.40;;;14.30;70.70;;;;;;5076329;28;20476;-73
2021/05/21 01:42:39;;;;;;;3.08;0.30;;;14.30;70.70;;;;;;5076418;28;20455;-74
2021/05/21 01:45:06;;;;;;;2.95;0.47;;;14.30;70.80;;;;;;5076169;28;20044;-73
2021/05/21 01:47:32;;;;;;;2.13;0.50;;;14.30;70.90;;;;;;5058140;28;20033;-73
2021/05/21 01:49:58;;;;;;;5.97;0.70;;;14.30;71.10;;;;;;5075188;28;20029;-73
2021/05/21 01:52:24;;;;;;;1.90;0.45;;;14.30;72.20;;;;;;5076454;28;20028;-74
2021/05/21 01:54:49;;;;;;;1.15;0.40;;;14.30;72.30;;;;;;5058492;28;20025;-73
2021/05/21 01:57:15;;;;;;;4.05;0.52;;;14.20;72.30;;;;;;5058105;28;20426;-72
2021/05/21 01:59:41;;;;;;;4.70;0.80;;;14.20;72.30;;;;;;5074688;28;20029;-74
2021/05/21 02:02:08;;;;;;;3.10;0.40;;;14.20;72.00;;;;;;5074895;28;20024;-74
2021/05/21 02:04:37;;;;;;;4.03;0.43;;;14.20;72.00;;;;;;5074775;28;20060;-75
2021/05/21 02:07:03;;;;;;;3.50;0.40;;;14.20;72.30;;;;;;5075084;28;20048;-73
2021/05/21 02:09:34;;;;;;;2.40;0.55;;;14.20;72.60;;;;;;5075902;28;20032;-75
2021/05/21 02:12:05;;;;;;;4.75;0.88;;;14.20;74.70;;;;;;5075874;28;20028;-82
2021/05/21 02:14:30;;;;;;;9.77;0.93;;;14.10;77.60;;;;;;5074416;28;20020;-76
2021/05/21 02:16:56;;;;;;;10.52;1.58;;;13.90;78.30;;;;;;5075695;28;20387;-80
2021/05/21 02:19:21;;;;;;;13.50;2.25;;;13.80;78.90;;;;;;5074479;28;20041;-77
2021/05/21 02:21:48;;;;;;;12.77;1.48;;;13.60;80.30;;;;;;5057594;28;20062;-81
2021/05/21 02:24:13;;;;;;;14.98;2.17;;;13.50;80.40;;;;;;5057696;28;20484;-85
2021/05/21 02:26:39;;;;;;;12.63;2.03;;;13.30;80.70;;;;;;5057739;28;20044;-78
2021/05/21 02:29:05;;;;;;;17.38;2.53;;;13.20;81.60;;;;;;5074285;28;20043;-78
2021/05/21 02:31:31;;;;;;;22.85;3.35;;;13.10;82.10;;;;;;5074411;28;20033;-78
2021/05/21 02:33:56;;;;;;;17.90;2.20;;;13.00;82.40;;;;;;5057565;28;20438;-77
2021/05/21 02:36:22;;;;;;;18.38;2.25;;;12.90;82.40;;;;;;5073934;28;20124;-79
2021/05/21 02:38:47;;;;;;;15.63;1.60;;;12.90;82.20;;;;;;5057086;28;20025;-77
2021/05/21 02:41:13;;;;;;;20.33;3.15;;;12.80;82.90;;;;;;5075155;28;20089;-80
2021/05/21 02:43:39;;;;;;;16.30;2.55;;;12.70;83.80;;;;;;5058026;28;20067;-78
2021/05/21 02:46:05;;;;;;;15.10;2.22;;;12.60;84.70;;;;;;5075281;28;20064;-80
2021/05/21 02:48:30;;;;;;;13.15;2.10;;;12.50;86.20;;;;;;5055511;28;20039;-81
2021/05/21 02:50:56;;;;;;;21.43;2.43;;;12.30;86.60;;;;;;5053757;28;20040;-81
2021/05/21 02:53:22;;;;;;;13.67;2.50;;;12.20;87.20;;;;;;5053222;28;20063;-80
2021/05/21 02:55:47;;;;;;;18.80;2.13;;;12.10;88.30;;;;;;5036970;28;20031;-81
2021/05/21 02:58:13;;;;;;;15.90;2.10;;;12.00;88.70;;;;;;5053649;28;20029;-80
2021/05/21 03:00:38;;;;;;;12.63;2.30;;;11.90;88.60;;;;;;5037089;28;20112;-80
2021/05/21 03:03:04;;;;;;;13.77;2.20;;;11.80;89.00;;;;;;5054632;28;20032;-79
2021/05/21 03:05:30;;;;;;;25.07;3.17;;;11.80;88.90;;;;;;5036840;28;20086;-77
2021/05/21 03:07:57;;;;;;;18.17;3.27;;;11.80;90.10;;;;;;5053222;28;20057;-82
2021/05/21 03:10:24;;;;;;;14.73;2.57;;;11.70;90.90;;;;;;5053058;28;20041;-78
2021/05/21 03:12:50;;;;;;;15.10;2.03;;;11.50;91.10;;;;;;5053095;28;20095;-78
2021/05/21 03:15:16;;;;;;;18.00;2.37;;;11.40;91.30;;;;;;5036403;28;20028;-78
2021/05/21 03:17:42;;;;;;;16.87;1.73;;;11.30;91.30;;;;;;5054451;28;20021;-77
2021/05/21 03:20:08;;;;;;;14.03;2.20;;;11.30;91.20;;;;;;5053186;28;20043;-78
2021/05/21 03:22:34;;;;;;;19.17;2.30;;;11.30;91.30;;;;;;5036617;28;20111;-79
2021/05/21 03:25:02;;;;;;;15.80;2.33;;;11.20;91.30;;;;;;5036251;28;20477;-77
2021/05/21 03:27:28;;;;;;;19.93;2.80;;;11.20;91.30;;;;;;5054102;28;20110;-78
2021/05/21 03:29:53;;;;;;;16.50;2.20;;;11.20;91.30;;;;;;5053977;28;20063;-77
2021/05/21 03:32:19;;;;;;;12.70;1.77;;;11.20;91.20;;;;;;5053318;28;20068;-76
2021/05/21 03:34:44;;;;;;;18.50;2.73;;;11.20;91.30;;;;;;5052624;28;20029;-77
2021/05/21 03:37:11;;;;;;;19.27;2.70;;;11.20;91.50;;;;;;5054037;28;20393;-76
2021/05/21 03:39:38;;;;;;;19.53;2.10;;;11.20;91.70;;;;;;5052716;28;20063;-76
2021/05/21 03:42:05;;;;;;;15.50;2.23;;;11.30;91.60;;;;;;5053780;28;20033;-76
2021/05/21 03:44:31;;;;;;;13.20;2.30;;;11.20;91.60;;;;;;5052531;28;20048;-77
2021/05/21 03:46:57;;;;;;;18.47;2.23;;;11.30;91.90;;;;;;5052645;28;20041;-76
2021/05/21 03:49:23;;;;;;;21.10;2.97;;;11.20;91.50;;;;;;5035771;28;20044;-77
2021/05/21 03:51:50;;;;;;;19.67;2.23;;;11.20;91.40;;;;;;5053800;28;20029;-78
2021/05/21 03:54:15;;;;;;;12.03;2.17;;;11.20;91.20;;;;;;5053581;28;20083;-78
2021/05/21 03:56:41;;;;;;;9.90;1.80;;;11.20;91.10;;;;;;5053795;28;20029;-78
2021/05/21 03:59:07;;;;;;;17.50;2.40;;;11.20;91.10;;;;;;5052457;28;20037;-79
2021/05/21 04:01:32;;;;;;;15.10;3.23;;;11.20;91.00;;;;;;5042189;28;20415;-76
2021/05/21 04:03:59;;;;;;;13.33;1.77;;;11.10;91.00;;;;;;5051302;28;20392;-79
2021/05/21 04:06:24;;;;;;;16.17;2.43;;;11.20;90.90;;;;;;5067847;28;20510;-78
2021/05/21 04:08:50;;;;;;;15.40;1.80;;;11.20;90.90;;;;;;5053480;28;20096;-81
2021/05/21 04:11:16;;;;;;;17.57;1.73;;;11.20;90.90;;;;;;5068710;28;20441;-82
2021/05/21 04:13:41;;;;;;;14.93;2.20;;;11.20;90.70;;;;;;5052140;28;20021;-77
2021/05/21 04:16:07;;;;;;;12.07;1.50;;;11.20;90.60;;;;;;5051355;28;20029;-78
2021/05/21 04:18:33;;;;;;;13.07;1.50;;;11.30;90.60;;;;;;5051878;28;20029;-80
2021/05/21 04:20:58;;;;;;;14.23;2.20;;;11.30;90.50;;;;;;5052067;28;20033;-80
2021/05/21 04:23:24;;;;;;;14.03;1.80;;;11.20;90.30;;;;;;5068800;28;20044;-78
2021/05/21 04:25:51;;;;;;;13.17;1.97;;;11.40;90.40;;;;;;5053337;28;20033;-83
2021/05/21 04:28:16;;;;;;;15.97;2.17;;;11.40;90.30;;;;;;5068533;28;20098;-78
2021/05/21 04:30:42;;;;;;;11.87;1.70;;;11.40;90.20;;;;;;5053013;28;20461;-78
2021/05/21 04:33:08;;;;;;;13.40;1.47;;;11.40;90.20;;;;;;5051824;28;20036;-78
2021/05/21 04:35:33;;;;;;;16.10;2.37;;;11.40;90.10;;;;;;5068633;28;20473;-79
2021/05/21 04:37:59;;;;;;;16.13;2.40;;;11.60;90.00;;;;;;5053115;28;20040;-82
2021/05/21 04:40:25;;;;;;;10.47;1.60;;;11.60;89.90;;;;;;5053270;28;20120;-78
2021/05/21 04:42:51;;;;;;;14.83;2.70;;;11.60;89.80;;;;;;5055278;28;20473;-78
2021/05/21 04:45:17;;;;;;;16.90;2.97;;;11.70;89.70;;;;;;5062540;28;20086;-79
2021/05/21 04:47:42;;;;;;;14.67;2.07;;;11.70;89.60;;;;;;5054986;28;20082;-78
2021/05/21 04:50:09;;;;;;;12.27;2.03;;;11.70;89.60;;;;;;5055275;28;20131;-79
2021/05/21 04:52:34;;;;;;;12.80;1.60;;;11.70;89.80;;;;;;5054403;28;20159;-79
2021/05/21 04:55:00;;;;;;;10.37;2.30;;;11.70;89.70;;;;;;5055350;28;20103;-78
2021/05/21 04:57:27;;;;;;;11.53;1.77;;;11.70;90.00;;;;;;5055669;28;20029;-79
2021/05/21 04:59:52;;;;;;;16.23;2.90;;;11.70;89.90;;;;;;5054847;28;20029;-79
2021/05/21 05:02:18;;;;;;;11.98;1.73;;;11.80;89.90;;;;;;5038403;28;20503;-80
2021/05/21 05:04:43;;;;;;;12.80;1.80;;;11.80;89.90;;;;;;5037410;28;20190;-78
2021/05/21 05:07:09;;;;;;;11.20;1.65;;;11.80;89.40;;;;;;5068991;28;20074;-78
2021/05/21 05:09:35;;;;;;;11.47;1.83;;;11.90;88.90;;;;;;5041119;28;20033;-77
2021/05/21 05:12:00;;;;;;;14.33;1.90;;;11.90;88.50;;;;;;5057650;28;20124;-83
2021/05/21 05:14:26;;;;;;;14.83;1.87;;;11.90;88.10;;;;;;5076348;28;20111;-76
2021/05/21 05:16:52;;;;;;;18.13;2.30;;;11.90;88.00;;;;;;5034247;28;20119;-86
2021/05/21 05:19:19;;;;;;;15.03;1.73;;;11.90;88.00;;;;;;5075120;28;20020;-79
2021/05/21 05:21:45;;;;;;;15.90;1.63;;;11.90;88.20;;;;;;5036464;28;20043;-79
2021/05/21 05:24:19;;;;;;;14.70;2.73;;;11.90;88.40;;;;;;5054103;28;20033;-79
2021/05/21 05:26:45;;;;;;;;;;;11.90;88.40;;;;;;5053764;28;20071;-78
2021/05/21 05:29:11;;;;;;;8.93;1.33;;;11.90;88.60;;;;;;5055550;28;20011;-79
2021/05/21 05:31:38;;;;;;;11.30;2.03;;;11.90;88.70;;;;;;5054100;28;20532;-79
2021/05/21 05:34:03;;;;;;;12.93;2.70;;;11.90;88.90;;;;;;5055105;28;20029;-80
2021/05/21 05:36:29;;;;;;;16.57;2.30;;;11.90;88.40;;;;;;5060107;28;20358;-77
2021/05/21 05:38:54;;;;;;;10.40;2.50;;;11.90;86.20;;;;;;5069819;28;20087;-79
2021/05/21 05:41:20;;;;;;;12.90;2.17;;;11.90;85.70;;;;;;5061554;28;20116;-78
2021/05/21 05:43:46;;;;;;;18.47;1.80;;;12.00;85.20;;;;;;5064763;28;20086;-79
2021/05/21 05:46:11;;;;;;;19.50;2.47;;;12.10;84.90;;;;;;5062779;28;20048;-79
2021/05/21 05:48:37;;;;;;;13.25;1.52;;;12.00;84.80;;;;;;5054674;28;20388;-76
2021/05/21 05:51:04;;;;;;;13.85;1.73;;;12.10;85.30;;;;;;5056112;28;20052;-79
2021/05/21 05:53:35;;;;;;;13.70;2.42;;;12.10;84.60;;;;;;5055290;28;20032;-78
2021/05/21 05:56:04;;;;;;;12.13;2.23;;;12.20;84.40;;;;;;5055857;28;20362;-79
2021/05/21 05:58:30;;;;;;;15.60;2.08;;;12.20;84.10;;;;;;5055811;28;20489;-77
2021/05/21 06:00:57;;;;;;;12.93;2.22;;;12.20;82.20;;;;;;5069796;28;20484;-78
2021/05/21 06:03:22;;;;;;;16.45;2.88;;;12.30;82.20;;;;;;5073573;28;20021;-77
2021/05/21 06:05:48;;;;;;;16.17;2.30;;;12.30;81.50;;;;;;5065121;28;20032;-79
2021/05/21 06:08:14;;;;;;;8.05;1.20;;;12.30;80.90;;;;;;5038042;28;20033;-81
2021/05/21 06:10:40;;;;;;;11.82;1.77;;;12.30;79.20;;;;;;5071048;28;20048;-79
2021/05/21 06:13:09;;;;;;;14.23;1.83;;;12.40;78.90;;;;;;5058011;28;20025;-75
2021/05/21 06:15:36;;;;;;;15.73;2.33;;;12.40;78.20;;;;;;5046346;28;20025;-73
2021/05/21 06:18:02;;;;;;;20.58;2.65;;;12.50;77.40;;;;;;5071231;28;20021;-74
2021/05/21 06:20:30;;;;;;;15.10;1.95;;;12.40;77.10;;;;;;5057214;28;20120;-75
2021/05/21 06:22:56;;;;;;;12.68;1.52;;;12.50;76.30;;;;;;5065666;28;20031;-76
2021/05/21 06:25:38;;;;;;;17.08;2.15;;;12.50;74.90;;;;;;5066776;28;20100;-74
2021/05/21 06:28:03;;;;;;;12.75;1.63;;;12.60;75.10;;;;;;5059607;28;20112;-75
2021/05/21 06:30:29;;;;;;;15.65;3.28;;;12.60;74.60;;;;;;5058623;28;20095;-74
2021/05/21 06:32:55;;;;;;;17.05;1.77;;;12.60;74.70;;;;;;5061805;28;20044;-76
2021/05/21 06:35:22;;;;;;;13.18;2.35;;;12.60;72.90;;;;;;5066004;28;20021;-76
2021/05/21 06:37:48;;;;;;;13.93;1.60;;;12.70;73.10;;;;;;5028016;28;20017;-74
2021/05/21 06:40:14;;;;;;;15.15;2.00;;;12.80;73.10;;;;;;5061985;28;20078;-76
2021/05/21 06:42:40;;;;;;;10.43;1.70;;;12.80;71.20;;;;;;5060499;28;20017;-75
2021/05/21 06:45:07;;;;;;;11.60;1.90;;;12.80;71.50;;;;;;5068885;28;20028;-73
2021/05/21 06:47:33;;;;;;;13.52;1.38;;;12.90;71.80;;;;;;5039715;28;20074;-74
2021/05/21 06:49:59;;;;;;;14.85;1.92;;;12.90;70.20;;;;;;5053806;28;20033;-73
2021/05/21 06:52:25;;;;;;;15.43;1.65;;;13.00;69.90;;;;;;5053972;28;20033;-73
2021/05/21 06:54:51;;;;;;;12.35;1.58;;;13.10;71.00;;;;;;5054045;28;20052;-77
2021/05/21 06:57:16;;;;;;;10.18;1.35;;;13.20;69.90;;;;;;5055265;28;20072;-73
2021/05/21 06:59:42;;;;;;;10.75;1.63;;;13.20;69.10;;;;;;5053198;28;20025;-73
2021/05/21 07:02:08;;;;;;;18.80;2.08;;;13.20;69.50;;;;;;5054843;28;20025;-75
2021/05/21 07:04:34;;;;;;;21.40;2.67;;;13.20;67.50;;;;;;5053283;28;20035;-76
2021/05/21 07:07:00;;;;;;;14.35;1.40;;;13.30;68.30;;;;;;5052549;28;20127;-74
2021/05/21 07:09:26;;;;;;;13.00;2.03;;;13.30;68.40;;;;;;5053259;28;20029;-74
2021/05/21 07:11:51;;;;;;;13.82;2.08;;;13.40;68.20;;;;;;5054706;28;20027;-76
2021/05/21 07:14:17;;;;;;;19.02;2.83;;;13.40;68.30;;;;;;5053200;28;20032;-74
2021/05/21 07:16:43;;;;;;;12.48;1.90;;;13.40;68.30;;;;;;5053318;28;20032;-75
2021/05/21 07:19:13;;;;;;;15.73;2.30;;;13.50;68.40;;;;;;5053418;28;20018;-74
2021/05/21 07:21:38;;;;;;;15.82;2.03;;;13.50;68.50;;;;;;5053620;28;20021;-74
2021/05/21 07:24:05;;;;;;;15.35;2.45;;;13.50;68.40;;;;;;5036253;28;20029;-76
2021/05/21 07:26:31;;;;;;;20.13;2.85;;;13.60;68.30;;;;;;5072898;28;20005;-73
2021/05/21 07:28:58;;;;;;;10.85;1.88;;;13.60;68.50;;;;;;5074058;28;20028;-74
2021/05/21 07:31:27;;;;;;;11.35;1.67;;;13.60;68.50;;;;;;5056368;28;20506;-76
2021/05/21 07:33:54;;;;;;;13.63;1.95;;;13.60;67.60;;;;;;5072998;28;20384;-75
2021/05/21 07:36:20;;;;;;;19.42;3.20;;;13.70;68.40;;;;;;5073104;28;20033;-74
2021/05/21 07:38:46;;;;;;;9.13;1.95;;;13.70;67.90;;;;;;5056359;28;20414;-75
2021/05/21 07:41:13;;;;;;;13.90;1.65;;;13.80;67.60;;;;;;5061812;28;20083;-75
2021/05/21 07:43:39;;;;;;;13.30;1.67;;;13.80;67.50;;;;;;5036450;28;20025;-77
2021/05/21 07:46:05;;;;;;;10.00;1.50;;;14.00;67.60;;;;;;5055444;28;20040;-76
2021/05/21 07:48:31;;;;;;;13.32;2.08;;;14.10;67.60;;;;;;5065047;28;20025;-76
2021/05/21 07:50:56;;;;;;;14.73;1.75;;;14.20;66.20;;;;;;5049943;28;20029;-77
2021/05/21 07:53:22;;;;;;;18.20;2.53;;;14.30;66.30;;;;;;5064442;28;20029;-75
2021/05/21 07:55:48;;;;;;;13.07;1.98;;;14.30;66.50;;;;;;5072934;28;20032;-76
2021/05/21 07:58:14;;;;;;;11.60;1.30;;;14.30;67.70;;;;;;5073293;28;20032;-75
2021/05/21 08:00:41;;;;;;;11.18;2.20;;;14.20;70.60;;;;;;5039735;28;20024;-77
2021/05/21 08:03:07;;;;;;;11.20;1.30;;;14.00;78.80;;;;;;5072917;28;20456;-75
2021/05/21 08:05:33;;;;;;;12.02;1.40;;;13.50;83.30;;;;;;5072566;28;20027;-76
2021/05/21 08:07:58;;;;;;;12.82;1.80;;;12.90;83.90;;;;;;5055922;28;20064;-74
2021/05/21 08:10:24;;;;;;;6.57;0.70;;;12.40;85.70;;;;;;5072180;28;20035;-75
2021/05/21 08:12:50;;;;;;;9.23;0.90;;;12.00;85.90;;;;;;5072956;28;20055;-75
2021/05/21 08:15:16;;;;;;;9.83;1.13;;;11.60;88.40;;;;;;5039508;28;20393;-75
2021/05/21 08:17:41;;;;;;;8.70;1.10;;;11.40;89.70;;;;;;5038912;28;20028;-76
2021/05/21 08:20:08;;;;;;;6.57;1.10;;;11.20;90.20;;;;;;5072401;28;20048;-73
2021/05/21 08:22:34;;;;;;;9.23;1.23;;;11.10;90.50;;;;;;5072270;28;20040;-77
2021/05/21 08:24:59;;;;;;;8.07;0.90;;;11.10;90.40;;;;;;5055308;28;20403;-77
2021/05/21 08:27:25;;;;;;;13.87;1.53;;;11.10;90.60;;;;;;5039000;28;20490;-76
2021/05/21 08:29:51;;;;;;;9.37;1.73;;;11.00;90.90;;;;;;5072228;28;20037;-79
2021/05/21 08:32:16;;;;;;;14.97;2.73;;;11.00;91.40;;;;;;5055579;28;20419;-81
2021/05/21 08:34:42;;;;;;;11.50;2.27;;;11.00;91.80;;;;;;5072151;28;20120;-81
2021/05/21 08:37:08;;;;;;;14.70;2.07;;;11.20;91.90;;;;;;5072083;28;20032;-82
2021/05/21 08:39:34;;;;;;;11.47;2.50;;;11.30;92.10;;;;;;5055838;28;20036;-81
2021/05/21 08:42:01;;;;;;;11.17;2.00;;;11.40;92.30;;;;;;5072418;28;20037;-83
2021/05/21 08:44:30;;;;;;;10.83;2.20;;;11.50;92.10;;;;;;5072312;28;20384;-82
2021/05/21 08:46:59;;;;;;;15.18;2.67;;;11.60;91.70;;;;;;5072511;28;20032;-82
2021/05/21 08:49:25;;;;;;;12.60;2.67;;;11.80;91.10;;;;;;5067473;28;20404;-82
2021/05/21 08:51:51;;;;;;;12.27;1.77;;;11.90;90.50;;;;;;5063788;28;20119;-86
2021/05/21 08:54:17;;;;;;;17.30;2.30;;;12.10;88.90;;;;;;5052351;28;20025;-82
2021/05/21 08:56:44;;;;;;;16.63;2.17;;;12.30;88.20;;;;;;5069369;28;20046;-84
2021/05/21 08:59:10;;;;;;;16.73;2.50;;;12.50;88.90;;;;;;5072587;28;20051;-81
2021/05/21 09:01:57;;;;;;;15.40;1.95;;;12.60;87.70;;;;;;5056081;28;20039;-80
2021/05/21 09:04:23;;;;;;;15.43;2.33;;;12.80;86.00;;;;;;5072114;28;20033;-81
2021/05/21 09:06:49;;;;;;;18.27;2.22;;;12.90;81.30;;;;;;5054921;28;20135;-83
2021/05/21 09:09:15;;;;;;;17.55;2.13;;;13.00;80.10;;;;;;5055037;28;20035;-81
2021/05/21 09:11:43;;;;;;;13.90;1.75;;;13.20;79.10;;;;;;5072113;28;20483;-79
2021/05/21 09:14:20;;;;;;;9.05;1.90;;;13.20;78.30;;;;;;5071859;28;20475;-81
2021/05/21 09:16:48;;;;;;;9.07;1.63;;;13.40;78.20;;;;;;5073139;28;20532;-81
2021/05/21 09:19:15;;;;;;;8.35;1.67;;;13.40;76.90;;;;;;5055044;28;20031;-80
2021/05/21 09:22:05;;;;;;;9.77;1.75;;;13.30;79.10;;;;;;5071707;28;20021;-80
2021/05/21 09:24:43;;;;;;;6.25;1.00;;;12.90;84.80;;;;;;5071859;28;20480;-79
2021/05/21 09:27:11;;;;;;;13.60;1.70;;;12.30;87.10;;;;;;5071948;28;20029;-82
2021/05/21 09:29:48;;;;;;;12.40;2.10;;;11.90;90.30;;;;;;5067056;28;20033;-79
2021/05/21 09:32:25;;;;;;;13.67;2.13;;;11.70;91.40;;;;;;5071973;28;20120;-82
2021/05/21 09:35:12;;;;;;;16.10;2.23;;;11.60;91.80;;;;;;5054813;28;20129;-81
2021/05/21 09:37:44;;;;;;;12.87;2.00;;;11.50;92.50;;;;;;5055135;28;20017;-83
2021/05/21 09:40:20;;;;;;;10.00;1.77;;;11.50;93.00;;;;;;5056247;28;20480;-84
2021/05/21 09:42:52;;;;;;;11.03;2.13;;;11.50;93.10;;;;;;5054846;28;20432;-80
2021/05/21 09:45:33;;;;;;;13.07;2.50;;;11.50;93.30;;;;;;5055019;28;20108;-85
2021/05/21 09:48:10;;;;;;;19.47;3.40;;;11.60;93.70;;;;;;5054947;28;20485;-82
2021/05/21 09:50:43;;;;;;;13.63;2.70;;;11.70;93.70;;;;;;5055854;28;20033;-84
2021/05/21 09:53:09;;;;;;;14.50;2.72;;;11.90;93.70;;;;;;5055776;28;20097;-79
2021/05/21 09:55:39;;;;;;;17.73;2.20;;;12.20;93.60;;;;;;5055673;28;20029;-83
2021/05/21 09:58:05;;;;;;;13.95;2.05;;;12.30;93.30;;;;;;5054799;28;20028;-83
2021/05/21 10:00:31;;;;;;;19.38;2.35;;;12.40;92.50;;;;;;5054705;28;20029;-84
2021/05/21 10:02:57;;;;;;;16.85;2.42;;;12.50;92.00;;;;;;5038079;28;20123;-81
2021/05/21 10:05:23;;;;;;;15.65;1.98;;;12.60;91.20;;;;;;5038156;28;20060;-79
2021/05/21 10:07:52;;;;;;;16.98;1.65;;;12.70;90.70;;;;;;5055433;28;20064;-80
2021/05/21 10:10:24;;;;;;;15.50;2.95;;;12.80;90.40;;;;;;5054260;28;20036;-86
2021/05/21 10:12:50;;;;;;;13.85;2.22;;;12.80;90.20;;;;;;5038402;28;20087;-83
2021/05/21 10:15:16;;;;;;;11.65;2.63;;;13.00;88.80;;;;;;5037644;28;20028;-82
2021/05/21 10:17:44;;;;;;;14.35;2.20;;;13.10;87.20;;;;;;5056119;28;20533;-83
2021/05/21 10:20:13;;;;;;;14.27;2.40;;;13.10;85.90;;;;;;5041539;28;20029;-81
2021/05/21 10:22:41;;;;;;;12.60;2.00;;;13.30;86.60;;;;;;5065658;28;20059;-86
2021/05/21 10:25:24;;;;;;;11.88;1.80;;;13.50;85.80;;;;;;5074496;28;20120;-81
2021/05/21 10:27:56;;;;;;;12.98;2.00;;;13.80;86.00;;;;;;5074300;28;20033;-81
2021/05/21 10:30:26;;;;;;;18.23;2.10;;;14.00;83.00;;;;;;5074177;28;20385;-84
2021/05/21 10:33:17;;;;;;;11.85;2.40;;;14.10;76.70;;;;;;5037814;28;20029;-83
2021/05/21 10:35:43;;;;;;;15.23;1.48;;;14.10;74.00;;;;;;5056341;28;20080;-81
2021/05/21 10:38:18;;;;;;;11.45;1.95;;;14.10;73.10;;;;;;5069875;28;20036;-81
2021/05/21 10:40:44;;;;;;;11.75;1.80;;;14.30;73.50;;;;;;5064171;28;20096;-87
2021/05/21 10:43:22;;;;;;;13.30;1.67;;;14.70;74.20;;;;;;5032148;28;20402;-83
2021/05/21 10:45:55;;;;;;;11.23;1.67;;;15.00;73.10;;;;;;5055161;28;20025;-82
2021/05/21 10:48:28;;;;;;;8.57;1.48;;;15.20;71.50;;;;;;5053847;28;20048;-81
2021/05/21 10:51:07;;;;;;;12.77;1.42;;;15.50;70.30;;;;;;5036804;28;20047;-84
2021/05/21 10:53:38;;;;;;;8.23;1.20;;;15.90;69.70;;;;;;5054174;28;20112;-77
2021/05/21 10:56:04;;;;;;;7.10;1.13;;;16.00;68.50;;;;;;5055047;28;20033;-77
2021/05/21 10:58:33;;;;;;;7.20;1.20;;;15.90;68.80;;;;;;5048558;28;20550;-78
2021/05/21 11:01:16;;;;;;;9.52;1.67;;;15.80;68.20;;;;;;5056946;28;20029;-76
2021/05/21 11:04:03;;;;;;;7.25;0.98;;;16.00;70.00;;;;;;5073417;28;20017;-78
2021/05/21 11:06:53;;;;;;;11.52;1.50;;;16.00;67.70;;;;;;5073386;28;20115;-81
2021/05/21 11:09:29;;;;;;;8.65;1.45;;;15.90;66.90;;;;;;5070321;28;20044;-74
2021/05/21 11:12:03;;;;;;;10.90;1.77;;;15.70;67.20;;;;;;5074361;28;20568;-75
2021/05/21 11:14:32;;;;;;;9.57;1.50;;;15.50;67.30;;;;;;5074524;28;20030;-76
2021/05/21 11:16:59;;;;;;;10.13;1.27;;;15.60;69.70;;;;;;5073161;28;20033;-76
2021/05/21 11:19:27;;;;;;;8.77;1.63;;;16.10;70.40;;;;;;5074242;28;20070;-77
2021/05/21 11:22:12;;;;;;;6.90;1.30;;;16.60;70.50;;;;;;5072873;28;20108;-77
2021/05/21 11:24:45;;;;;;;7.10;1.45;;;17.40;68.40;;;;;;5074431;28;20476;-86
2021/05/21 11:27:12;;;;;;;7.90;1.58;;;18.10;67.00;;;;;;5073050;28;20111;-84
2021/05/21 11:29:42;;;;;;;9.55;1.80;;;18.90;66.20;;;;;;5074192;28;20476;-84
2021/05/21 11:32:08;;;;;;;7.30;1.52;;;19.30;62.40;;;;;;5073281;28;20036;-86
2021/05/21 11:34:34;;;;;;;10.82;1.80;;;19.20;60.00;;;;;;5056398;28;20029;-81
2021/05/21 11:37:00;;;;;;;6.93;1.30;;;18.90;57.30;;;;;;5072758;28;20020;-85
2021/05/21 11:39:26;;;;;;;12.27;1.88;;;18.30;60.40;;;;;;5072726;28;20499;-81
2021/05/21 11:41:54;;;;;;;12.90;1.40;;;17.60;67.40;;;;;;5074266;28;20369;-81
2021/05/21 11:44:25;;;;;;;11.35;1.50;;;16.50;71.00;;;;;;5072833;28;20024;-83
2021/05/21 11:47:05;;;;;;;10.38;1.42;;;15.50;75.10;;;;;;5067830;28;20443;-83
2021/05/21 11:49:31;;;;;;;9.05;1.65;;;14.60;79.30;;;;;;5053935;28;20032;-82
2021/05/21 11:52:03;;;;;;;9.10;1.35;;;14.00;82.80;;;;;;5052078;28;20086;-83
2021/05/21 11:54:30;;;;;;;12.55;1.65;;;13.70;84.90;;;;;;5052761;28;20069;-78
2021/05/21 11:56:57;;;;;;;10.50;1.90;;;13.50;86.80;;;;;;5053650;28;20358;-80
2021/05/21 11:59:24;;;;;;;15.00;2.13;;;13.50;88.20;;;;;;5052556;28;20025;-81
2021/05/21 12:01:50;;;;;;;9.60;1.30;;;13.90;90.00;;;;;;5053586;28;20082;-81
2021/05/21 12:04:17;;;;;;;10.30;1.80;;;14.50;88.60;;;;;;5053461;28;20036;-83
2021/05/21 12:06:47;;;;;;;13.60;1.67;;;15.20;88.00;;;;;;5053214;28;20067;-83
2021/05/21 12:09:14;;;;;;;10.95;1.83;;;15.80;85.00;;;;;;5051745;28;20029;-83
2021/05/21 12:11:41;;;;;;;13.07;1.75;;;16.40;81.70;;;;;;5052262;28;20111;-82
2021/05/21 12:14:20;;;;;;;13.13;1.50;;;17.00;80.90;;;;;;5052306;28;20028;-81
2021/05/21 12:16:48;;;;;;;7.97;1.70;;;17.70;75.00;;;;;;5053693;28;20029;-84
2021/05/21 12:19:15;;;;;;;7.10;1.42;;;18.20;74.20;;;;;;5035683;28;20029;-81
2021/05/21 12:21:51;;;;;;;9.35;1.40;;;18.70;70.10;;;;;;5051912;28;20418;-85
2021/05/21 12:24:22;;;;;;;9.98;1.50;;;19.20;68.10;;;;;;5061327;28;20441;-84
2021/05/21 12:26:49;;;;;;;10.38;1.77;;;19.60;65.30;;;;;;5071747;28;20395;-86
2021/05/21 12:29:16;;;;;;;11.70;1.80;;;19.80;58.90;;;;;;5054668;28;20123;-85
2021/05/21 12:31:48;;;;;;;8.65;1.85;;;20.10;59.80;;;;;;5052085;28;20455;-88
2021/05/21 12:34:19;;;;;;;7.80;1.30;;;20.40;60.40;;;;;;5057056;28;20028;-83
2021/05/21 12:36:55;;;;;;;8.13;1.23;;;20.90;58.80;;;;;;5073268;28;20465;-83
2021/05/21 12:39:43;;;;;;;8.93;1.20;;;20.60;56.10;;;;;;5056559;28;20548;-80
2021/05/21 12:42:12;;;;;;;7.35;1.60;;;20.00;54.00;;;;;;5068435;28;20091;-82